Time;durP1;ratioP1;P1;durP2;ratioP2;P2;SDS_P1;SDS_P2;PMS_P1;PMS_P2;Temp;Humidity;BMP_temperature;BMP_pressure;BME280_temperature;BME280_humidity;BME280_pressure;Samples;Min_cycle;Max_cycle;Signal;HPM_P1;HPM_P2
2024/03/25 00:01:26;;;;;;;19.60;11.50;;;;;;;4.72;76.26;99635.73;104599;1262;75337;-59
2024/03/25 00:03:53;;;;;;;20.80;12.70;;;;;;;4.72;76.40;99635.75;104546;1262;138941;-60
2024/03/25 00:06:20;;;;;;;18.90;11.40;;;;;;;4.73;76.42;99636.11;108968;1255;73675;-60
2024/03/25 00:08:47;;;;;;;20.80;10.80;;;;;;;4.73;76.45;99638.39;105647;1262;62054;-60
2024/03/25 00:11:13;;;;;;;20.10;10.50;;;;;;;4.75;76.56;99637.75;104719;1259;137682;-60
2024/03/25 00:13:40;;;;;;;17.10;10.60;;;;;;;4.77;76.53;99636.61;104590;1260;76425;-60
2024/03/25 00:16:07;;;;;;;17.50;10.30;;;;;;;4.78;76.53;99636.45;104730;1256;137970;-60
2024/03/25 00:18:33;;;;;;;17.50;10.60;;;;;;;4.77;76.47;99632.62;104826;1257;73592;-60
2024/03/25 00:21:00;;;;;;;21.80;10.20;;;;;;;4.75;76.48;99631.48;104846;1261;62108;-60
2024/03/25 00:23:27;;;;;;;16.50;9.90;;;;;;;4.71;76.41;99630.16;104599;1260;138812;-63
2024/03/25 00:25:53;;;;;;;20.30;10.00;;;;;;;4.66;76.45;99628.10;104733;1260;75566;-63
2024/03/25 00:28:20;;;;;;;17.30;10.60;;;;;;;4.64;76.45;99627.52;104747;1258;138679;-63
2024/03/25 00:30:47;;;;;;;20.20;12.30;;;;;;;4.63;76.64;99630.09;104790;1260;72085;-63
2024/03/25 00:33:13;;;;;;;23.40;13.00;;;;;;;4.62;76.50;99629.89;104771;1259;62427;-63
2024/03/25 00:35:40;;;;;;;23.20;14.00;;;;;;;4.59;76.73;99631.55;104875;1260;138357;-63
2024/03/25 00:38:07;;;;;;;24.10;14.30;;;;;;;4.58;76.72;99632.21;104815;1256;76118;-63
2024/03/25 00:40:34;;;;;;;25.80;13.20;;;;;;;4.58;76.74;99631.99;104838;1262;138597;-63
2024/03/25 00:43:00;;;;;;;21.10;11.10;;;;;;;4.58;76.80;99631.84;104818;1260;73801;-62
2024/03/25 00:45:30;;;;;;;18.80;10.30;;;;;;;4.60;76.87;99630.16;104708;1260;62044;-63
2024/03/25 00:47:59;;;;;;;22.40;12.20;;;;;;;4.60;76.83;99633.14;105462;1260;138510;-63
2024/03/25 00:50:26;;;;;;;22.30;11.10;;;;;;;4.59;76.78;99634.16;105656;1262;74440;-63
2024/03/25 00:52:53;;;;;;;26.10;11.70;;;;;;;4.59;76.89;99631.17;105508;1260;138348;-63
2024/03/25 00:55:19;;;;;;;18.50;9.90;;;;;;;4.57;76.88;99630.27;104787;1260;70891;-63
2024/03/25 00:57:48;;;;;;;19.10;9.70;;;;;;;4.57;76.97;99626.61;104889;1262;137721;-62
2024/03/25 01:00:15;;;;;;;19.60;10.10;;;;;;;4.57;77.10;99625.21;104774;1258;61989;-63
2024/03/25 01:02:42;;;;;;;20.90;9.80;;;;;;;4.57;77.17;99624.69;104833;1258;75153;-63
2024/03/25 01:05:09;;;;;;;16.60;8.60;;;;;;;4.57;77.13;99626.77;104577;1259;139947;-63
2024/03/25 01:07:35;;;;;;;14.20;8.60;;;;;;;4.57;77.20;99622.44;104714;1260;73570;-63
2024/03/25 01:10:02;;;;;;;12.80;8.20;;;;;;;4.56;77.13;99623.30;104439;1261;140028;-64
2024/03/25 01:12:29;;;;;;;16.80;8.80;;;;;;;4.57;77.31;99621.73;105588;1257;62057;-64
2024/03/25 01:14:56;;;;;;;15.40;8.50;;;;;;;4.59;77.29;99621.09;104753;1260;75638;-64
2024/03/25 01:17:23;;;;;;;15.40;8.70;;;;;;;4.60;77.36;99622.38;104961;1260;138347;-62
2024/03/25 01:19:49;;;;;;;14.80;9.80;;;;;;;4.61;77.26;99619.59;104830;1260;72192;-62
2024/03/25 01:22:16;;;;;;;14.40;9.30;;;;;;;4.58;77.27;99615.35;104645;1257;138941;-63
2024/03/25 01:24:42;;;;;;;13.70;9.30;;;;;;;4.56;77.43;99617.70;104678;1260;62087;-64
2024/03/25 01:27:09;;;;;;;15.50;10.50;;;;;;;4.56;77.44;99617.88;104664;1260;74915;-63
2024/03/25 01:29:36;;;;;;;14.60;9.20;;;;;;;4.55;77.43;99619.09;104712;1260;138541;-63
2024/03/25 01:32:04;;;;;;;16.00;8.50;;;;;;;4.55;77.53;99619.59;104734;1263;70809;-59
2024/03/25 01:34:31;;;;;;;13.10;8.10;;;;;;;4.59;77.63;99619.55;108845;1257;138281;-60
2024/03/25 01:36:57;;;;;;;13.50;8.80;;;;;;;4.61;77.57;99617.86;108997;1255;61150;-60
2024/03/25 01:39:24;;;;;;;16.00;9.00;;;;;;;4.62;77.58;99618.60;108969;1257;77334;-60
2024/03/25 01:41:50;;;;;;;17.40;9.90;;;;;;;4.65;77.61;99620.26;108852;1256;137275;-60
2024/03/25 01:44:17;;;;;;;17.70;10.40;;;;;;;4.67;77.54;99625.88;108944;1258;72531;-60
2024/03/25 01:46:44;;;;;;;16.30;10.00;;;;;;;4.73;77.74;99625.18;108845;1256;138383;-60
2024/03/25 01:49:10;;;;;;;16.80;10.50;;;;;;;4.77;77.54;99624.79;108892;1256;61610;-60
2024/03/25 01:51:37;;;;;;;16.80;10.90;;;;;;;4.79;77.62;99622.41;108519;1257;138879;-60
2024/03/25 01:54:04;;;;;;;14.50;10.60;;;;;;;4.80;77.56;99621.75;108693;1257;66252;-60
2024/03/25 01:56:32;;;;;;;20.80;12.20;;;;;;;4.81;77.45;99619.85;108665;1257;73549;-60
2024/03/25 01:58:59;;;;;;;17.40;11.70;;;;;;;4.82;77.46;99623.04;108635;1263;138980;-60
2024/03/25 02:01:26;;;;;;;22.70;12.20;;;;;;;4.83;77.53;99622.89;106501;1261;62103;-59
2024/03/25 02:03:54;;;;;;;18.70;12.40;;;;;;;4.83;77.49;99624.11;108715;1256;138799;-60
2024/03/25 02:06:20;;;;;;;19.20;12.30;;;;;;;4.85;77.52;99621.71;105859;1263;66326;-59
2024/03/25 02:08:48;;;;;;;22.40;12.60;;;;;;;4.86;77.56;99621.73;108600;1258;74295;-59
2024/03/25 02:11:14;;;;;;;21.10;12.40;;;;;;;4.87;77.54;99620.56;108524;1257;138996;-59
2024/03/25 02:13:41;;;;;;;21.10;11.70;;;;;;;4.91;77.59;99620.48;108404;1260;60386;-60
2024/03/25 02:16:08;;;;;;;23.90;12.10;;;;;;;4.91;77.49;99622.59;104529;1268;138790;-63
2024/03/25 02:18:34;;;;;;;19.30;12.60;;;;;;;4.93;77.55;99622.63;104757;1259;66730;-63
2024/03/25 02:21:01;;;;;;;21.50;12.60;;;;;;;4.94;77.67;99622.84;104731;1261;71977;-64
2024/03/25 02:23:28;;;;;;;24.00;13.60;;;;;;;4.97;77.59;99626.75;104594;1257;138404;-63
2024/03/25 02:25:54;;;;;;;24.80;13.80;;;;;;;4.95;77.52;99622.70;104707;1259;62073;-64
2024/03/25 02:28:21;;;;;;;29.00;13.60;;;;;;;4.94;77.56;99623.89;104744;1260;137837;-64
2024/03/25 02:30:48;;;;;;;37.80;16.70;;;;;;;4.92;77.62;99625.23;104870;1260;66282;-63
2024/03/25 02:33:14;;;;;;;35.90;18.00;;;;;;;4.90;77.65;99624.98;105012;1260;73845;-63
2024/03/25 02:35:42;;;;;;;42.00;18.80;;;;;;;4.87;77.61;99624.38;104516;1263;137932;-64
2024/03/25 02:38:08;;;;;;;39.70;19.40;;;;;;;4.84;77.61;99624.64;104752;1260;62127;-63
2024/03/25 02:40:35;;;;;;;39.10;19.90;;;;;;;4.81;77.78;99629.60;104407;1258;138809;-63
2024/03/25 02:43:02;;;;;;;42.30;19.40;;;;;;;4.79;77.66;99632.32;104700;1258;64488;-63
2024/03/25 02:45:28;;;;;;;39.70;19.60;;;;;;;4.77;77.85;99630.86;104772;1261;73145;-65
2024/03/25 02:47:55;;;;;;;34.50;18.30;;;;;;;4.76;77.73;99636.92;104552;1264;138337;-63
2024/03/25 02:50:22;;;;;;;32.20;18.30;;;;;;;4.75;77.92;99635.85;104856;1259;62562;-64
2024/03/25 02:52:48;;;;;;;33.20;17.50;;;;;;;4.77;78.09;99633.64;104845;1257;138588;-64
2024/03/25 02:55:15;;;;;;;34.90;17.30;;;;;;;4.78;78.06;99630.55;104885;1261;62507;-64
2024/03/25 02:57:42;;;;;;;30.60;18.60;;;;;;;4.79;77.96;99637.88;104544;1260;138902;-63
2024/03/25 03:00:09;;;;;;;37.20;18.80;;;;;;;4.80;77.99;99634.94;104833;1260;61985;-64
2024/03/25 03:02:36;;;;;;;33.60;18.50;;;;;;;4.79;78.06;99634.24;104889;1260;62000;-64
2024/03/25 03:05:03;;;;;;;36.80;19.20;;;;;;;4.82;78.16;99637.09;104705;1256;138532;-64
2024/03/25 03:07:30;;;;;;;33.80;18.90;;;;;;;4.84;78.31;99634.56;107275;1257;65044;-63
2024/03/25 03:09:57;;;;;;;34.90;18.80;;;;;;;4.87;78.18;99639.86;104712;1257;138436;-64
2024/03/25 03:12:23;;;;;;;35.40;19.60;;;;;;;4.88;78.13;99640.92;104859;1257;62170;-64
2024/03/25 03:14:50;;;;;;;36.40;19.50;;;;;;;4.89;78.15;99642.52;104898;1261;62043;-63
2024/03/25 03:17:16;;;;;;;44.70;21.10;;;;;;;4.89;78.19;99644.08;104582;1260;138704;-63
2024/03/25 03:19:43;;;;;;;46.40;23.30;;;;;;;4.87;78.13;99641.08;104619;1262;67986;-63
2024/03/25 03:22:10;;;;;;;50.70;25.50;;;;;;;4.84;78.11;99641.17;104670;1260;138299;-63
2024/03/25 03:24:36;;;;;;;47.40;25.10;;;;;;;4.82;78.22;99641.46;104665;1260;62559;-63
2024/03/25 03:27:03;;;;;;;53.60;25.60;;;;;;;4.82;78.25;99643.02;104695;1260;62176;-64
2024/03/25 03:29:30;;;;;;;46.40;24.00;;;;;;;4.81;78.29;99639.68;104669;1260;139526;-63
2024/03/25 03:31:56;;;;;;;47.60;24.00;;;;;;;4.77;78.12;99640.09;104772;1257;65906;-64
2024/03/25 03:34:23;;;;;;;41.20;22.80;;;;;;;4.76;78.34;99643.70;106031;1258;139466;-62
2024/03/25 03:36:50;;;;;;;39.30;21.10;;;;;;;4.75;78.37;99644.53;104645;1262;62111;-63
2024/03/25 03:39:17;;;;;;;40.10;19.90;;;;;;;4.74;78.35;99640.84;104688;1257;62150;-63
2024/03/25 03:41:44;;;;;;;43.00;21.50;;;;;;;4.76;78.43;99643.88;104572;1257;138924;-63
2024/03/25 03:44:12;;;;;;;38.40;20.30;;;;;;;4.77;78.48;99645.63;104692;1260;67234;-63
2024/03/25 03:46:39;;;;;;;35.60;19.40;;;;;;;4.79;78.59;99646.39;104738;1260;138761;-64
2024/03/25 03:49:05;;;;;;;37.80;19.50;;;;;;;4.82;78.61;99649.96;104727;1260;62115;-63
2024/03/25 03:51:32;;;;;;;32.60;18.00;;;;;;;4.84;78.69;99650.36;104723;1257;62269;-63
2024/03/25 03:53:58;;;;;;;31.80;18.20;;;;;;;4.87;78.67;99656.17;104698;1259;139700;-63
2024/03/25 03:56:25;;;;;;;31.70;17.00;;;;;;;4.91;78.84;99654.59;104818;1257;66532;-64
2024/03/25 03:58:52;;;;;;;25.80;15.80;;;;;;;4.95;78.74;99656.59;104795;1257;138538;-63
2024/03/25 04:01:18;;;;;;;25.80;17.50;;;;;;;4.96;78.76;99652.28;104649;1257;62042;-63
2024/03/25 04:03:45;;;;;;;27.40;17.20;;;;;;;4.97;78.61;99655.10;104455;1260;138025;-63
2024/03/25 04:06:12;;;;;;;33.20;19.50;;;;;;;4.97;78.65;99659.09;104485;1257;76520;-63
2024/03/25 04:08:39;;;;;;;30.20;19.00;;;;;;;4.98;78.73;99662.08;105112;1260;66247;-63
2024/03/25 04:11:06;;;;;;;33.80;20.10;;;;;;;4.99;78.72;99666.79;104501;1263;138168;-63
2024/03/25 04:13:34;;;;;;;33.60;18.60;;;;;;;4.98;78.74;99664.52;104821;1263;62531;-63
2024/03/25 04:16:04;;;;;;;32.40;20.20;;;;;;;4.98;78.72;99666.77;104658;1257;138645;-63
2024/03/25 04:18:31;;;;;;;31.20;18.70;;;;;;;4.97;78.74;99668.64;104780;1257;77191;-64
2024/03/25 04:20:58;;;;;;;33.20;19.20;;;;;;;4.96;78.80;99668.80;105796;1259;64196;-64
2024/03/25 04:23:25;;;;;;;25.50;16.60;;;;;;;4.96;78.84;99670.38;104596;1258;138585;-64
2024/03/25 04:25:52;;;;;;;31.20;17.70;;;;;;;4.97;78.91;99671.95;104761;1258;62101;-64
2024/03/25 04:28:20;;;;;;;28.00;18.00;;;;;;;4.96;78.82;99670.19;104537;1257;138639;-64
2024/03/25 04:30:51;;;;;;;27.90;17.10;;;;;;;4.94;78.91;99677.27;104611;1257;76573;-64
2024/03/25 04:33:18;;;;;;;29.60;17.10;;;;;;;4.95;78.92;99679.88;108890;1257;66107;-64
2024/03/25 04:35:46;;;;;;;25.50;17.60;;;;;;;4.95;79.01;99680.94;104770;1260;138815;-64
2024/03/25 04:38:15;;;;;;;26.80;17.90;;;;;;;4.95;78.92;99681.65;105522;1259;61926;-64
2024/03/25 04:40:42;;;;;;;27.30;17.00;;;;;;;4.96;78.98;99680.30;104611;1258;139146;-63
2024/03/25 04:43:09;;;;;;;23.70;17.00;;;;;;;4.97;79.05;99679.42;105046;1256;76663;-60
2024/03/25 04:45:36;;;;;;;23.90;16.90;;;;;;;4.98;79.03;99681.89;104914;1258;138968;-60
2024/03/25 04:48:03;;;;;;;24.40;16.90;;;;;;;4.99;79.14;99685.42;104402;1257;73959;-60
2024/03/25 04:50:30;;;;;;;23.90;17.80;;;;;;;5.01;79.13;99691.39;104680;1260;62265;-60
2024/03/25 04:52:57;;;;;;;25.80;18.20;;;;;;;5.01;79.10;99694.88;104570;1258;138559;-60
2024/03/25 04:55:23;;;;;;;24.80;18.60;;;;;;;5.02;79.11;99697.14;104686;1260;75958;-60
2024/03/25 04:57:50;;;;;;;24.00;18.90;;;;;;;5.00;79.15;99695.20;104499;1256;138624;-60
2024/03/25 05:00:17;;;;;;;23.60;19.40;;;;;;;5.01;79.17;99698.86;104523;1256;71908;-61
2024/03/25 05:02:44;;;;;;;26.40;19.90;;;;;;;4.99;79.24;99700.73;108750;1256;60945;-61
2024/03/25 05:05:10;;;;;;;26.80;19.70;;;;;;;5.00;79.27;99706.66;108545;1257;139717;-61
2024/03/25 05:07:37;;;;;;;25.80;20.30;;;;;;;5.02;79.28;99708.63;105617;1260;75500;-63
2024/03/25 05:10:05;;;;;;;26.60;19.30;;;;;;;5.05;79.33;99710.63;104627;1258;138901;-62
2024/03/25 05:12:32;;;;;;;33.20;19.70;;;;;;;5.07;79.35;99713.64;108936;1257;71316;-63
2024/03/25 05:14:58;;;;;;;24.80;18.70;;;;;;;5.10;79.45;99713.90;108865;1256;59858;-63
2024/03/25 05:17:25;;;;;;;28.30;19.60;;;;;;;5.15;79.45;99719.96;105521;1260;138791;-62
2024/03/25 05:19:52;;;;;;;29.10;19.80;;;;;;;5.17;79.42;99720.21;104852;1257;76241;-62
2024/03/25 05:22:18;;;;;;;28.50;20.30;;;;;;;5.18;79.31;99728.41;104719;1260;138691;-63
2024/03/25 05:24:45;;;;;;;27.60;20.10;;;;;;;5.21;79.39;99726.59;104722;1256;71875;-62
2024/03/25 05:27:11;;;;;;;31.50;20.40;;;;;;;5.26;79.50;99726.40;104761;1257;61978;-63
2024/03/25 05:29:38;;;;;;;28.00;20.60;;;;;;;5.31;79.53;99727.41;104673;1260;140314;-63
2024/03/25 05:32:05;;;;;;;31.80;20.50;;;;;;;5.37;79.59;99734.36;104735;1261;73177;-64
2024/03/25 05:34:32;;;;;;;25.30;19.60;;;;;;;5.43;79.47;99736.45;108685;1256;139171;-63
2024/03/25 05:36:58;;;;;;;25.10;19.40;;;;;;;5.47;79.51;99738.33;108723;1256;73697;-63
2024/03/25 05:39:25;;;;;;;28.00;20.20;;;;;;;5.54;79.50;99741.30;108766;1256;60364;-63
2024/03/25 05:41:52;;;;;;;26.40;19.80;;;;;;;5.61;79.44;99743.77;108683;1256;138792;-63
2024/03/25 05:44:18;;;;;;;26.40;20.60;;;;;;;5.70;79.42;99742.79;108935;1256;75705;-62
2024/03/25 05:46:45;;;;;;;30.50;21.20;;;;;;;5.78;79.40;99745.82;108361;1256;138737;-67
2024/03/25 05:49:11;;;;;;;28.00;21.00;;;;;;;5.84;79.24;99744.59;104662;1256;72047;-61
2024/03/25 05:51:38;;;;;;;32.30;21.60;;;;;;;5.90;79.19;99744.58;104516;1264;138518;-61
2024/03/25 05:54:05;;;;;;;29.40;21.90;;;;;;;5.94;79.00;99744.17;104695;1262;61104;-61
2024/03/25 05:56:31;;;;;;;31.60;22.70;;;;;;;5.97;78.98;99746.55;104870;1256;74821;-61
2024/03/25 05:58:58;;;;;;;32.90;23.80;;;;;;;5.99;78.88;99750.25;104729;1258;137717;-61
2024/03/25 06:01:25;;;;;;;33.80;24.30;;;;;;;6.00;78.90;99753.58;104803;1262;73092;-61
2024/03/25 06:03:52;;;;;;;33.60;23.30;;;;;;;6.02;79.01;99756.42;104730;1258;138858;-62
2024/03/25 06:06:18;;;;;;;31.90;23.60;;;;;;;6.03;78.81;99758.90;108740;1257;61364;-62
2024/03/25 06:08:45;;;;;;;33.10;23.00;;;;;;;6.03;78.85;99759.95;108861;1259;74679;-62
2024/03/25 06:11:12;;;;;;;32.40;23.40;;;;;;;6.08;78.73;99768.26;105589;1259;138520;-61
2024/03/25 06:13:38;;;;;;;29.20;22.20;;;;;;;6.16;78.92;99770.39;104965;1261;73078;-64
2024/03/25 06:16:05;;;;;;;32.40;22.50;;;;;;;6.26;78.85;99775.70;104690;1261;139892;-64
2024/03/25 06:18:32;;;;;;;29.70;22.50;;;;;;;6.33;78.82;99781.48;108892;1256;60025;-64
2024/03/25 06:20:58;;;;;;;33.20;23.30;;;;;;;6.41;78.85;99789.17;108892;1256;75084;-64
2024/03/25 06:23:26;;;;;;;29.40;22.20;;;;;;;6.49;78.73;99797.75;108784;1256;139178;-64
2024/03/25 06:25:54;;;;;;;35.30;22.00;;;;;;;6.54;78.65;99802.23;105865;1256;72755;-63
2024/03/25 06:28:24;;;;;;;32.60;24.60;;;;;;;6.57;78.41;99801.09;108851;1256;140458;-63
2024/03/25 06:36:22;;;;;;;37.20;24.90;;;;;;;6.90;78.60;99797.02;107237;1256;65751;-66
2024/03/25 06:38:49;;;;;;;31.10;25.20;;;;;;;7.05;78.48;99797.58;104793;1257;73468;-66
2024/03/25 06:41:16;;;;;;;32.60;25.10;;;;;;;7.18;78.21;99796.64;104722;1260;137868;-66
2024/03/25 06:43:43;;;;;;;33.40;25.60;;;;;;;7.36;78.26;99797.06;104821;1257;62063;-66
2024/03/25 06:46:09;;;;;;;32.30;24.80;;;;;;;7.54;78.14;99800.79;104873;1256;138825;-66
2024/03/25 06:48:36;;;;;;;37.90;24.60;;;;;;;7.71;77.98;99802.36;104868;1256;66342;-66
2024/03/25 06:51:03;;;;;;;34.00;26.10;;;;;;;7.87;77.91;99804.10;104754;1262;72348;-67
2024/03/25 06:53:30;;;;;;;43.30;32.40;;;;;;;8.00;77.50;99810.82;104722;1260;138647;-67
2024/03/25 06:55:58;;;;;;;34.20;25.00;;;;;;;8.06;77.24;99812.88;104797;1260;62077;-67
2024/03/25 06:58:28;;;;;;;29.70;24.20;;;;;;;8.13;77.02;99816.14;104680;1256;137842;-67
2024/03/25 07:00:56;;;;;;;29.20;24.50;;;;;;;8.16;76.83;99817.44;104994;1262;66555;-66
2024/03/25 07:03:23;;;;;;;31.50;23.80;;;;;;;8.24;76.70;99822.83;108921;1255;73089;-67
2024/03/25 07:05:55;;;;;;;28.70;23.90;;;;;;;8.28;76.54;99823.79;108711;1258;137839;-67
2024/03/25 07:08:21;;;;;;;29.20;23.70;;;;;;;8.33;76.31;99825.45;108869;1257;60557;-68
2024/03/25 07:10:48;;;;;;;30.40;24.70;;;;;;;8.40;76.26;99832.07;104798;1262;138324;-67
2024/03/25 07:13:15;;;;;;;31.10;25.00;;;;;;;8.41;75.81;99833.65;104646;1262;66358;-67
2024/03/25 07:15:43;;;;;;;31.90;25.10;;;;;;;8.43;75.85;99832.64;104627;1260;138151;-67
2024/03/25 07:18:12;;;;;;;31.50;25.10;;;;;;;8.47;75.67;99834.65;104893;1257;62157;-67
2024/03/25 07:20:43;;;;;;;51.50;37.20;;;;;;;8.55;75.74;99839.01;106217;1260;60221;-67
2024/03/25 07:23:09;;;;;;;46.90;35.80;;;;;;;8.63;75.62;99833.89;104687;1256;139289;-67
2024/03/25 07:25:36;;;;;;;44.30;32.80;;;;;;;8.75;75.58;99835.69;104679;1260;67458;-67
2024/03/25 07:28:04;;;;;;;39.40;30.90;;;;;;;8.87;75.53;99837.30;104642;1260;137990;-67
2024/03/25 07:30:31;;;;;;;36.90;26.80;;;;;;;9.00;75.48;99833.49;106498;1257;62203;-67
2024/03/25 07:32:58;;;;;;;35.80;27.30;;;;;;;9.15;75.26;99833.23;105859;1257;62233;-67
2024/03/25 07:35:25;;;;;;;32.90;26.30;;;;;;;9.31;75.14;99834.69;104964;1260;137985;-67
2024/03/25 07:37:51;;;;;;;33.90;26.60;;;;;;;9.46;74.71;99840.33;105028;1257;66946;-67
2024/03/25 07:40:19;;;;;;;51.50;39.90;;;;;;;9.58;74.52;99839.63;104735;1259;137991;-67
2024/03/25 07:42:45;;;;;;;34.90;28.80;;;;;;;9.72;74.38;99835.63;104839;1256;62154;-67
2024/03/25 07:45:12;;;;;;;33.40;24.50;;;;;;;9.85;74.35;99840.89;104816;1259;62141;-67
2024/03/25 07:47:38;;;;;;;45.50;35.40;;;;;;;10.04;74.23;99842.36;104674;1260;138505;-67
2024/03/25 07:50:06;;;;;;;33.20;25.60;;;;;;;10.20;73.68;99847.11;104850;1256;66916;-67
2024/03/25 07:52:33;;;;;;;46.70;36.40;;;;;;;10.27;73.29;99845.61;107716;1256;138145;-67
2024/03/25 07:55:00;;;;;;;48.50;39.40;;;;;;;10.31;72.91;99848.50;108938;1256;59757;-67
2024/03/25 07:57:27;;;;;;;55.00;42.20;;;;;;;10.30;72.64;99848.11;106076;1256;62126;-67
2024/03/25 07:59:53;;;;;;;53.50;43.20;;;;;;;10.37;72.65;99850.33;104755;1257;138278;-67
2024/03/25 08:02:21;;;;;;;32.00;26.90;;;;;;;10.53;72.57;99851.02;105012;1257;62512;-66
2024/03/25 08:04:47;;;;;;;43.00;35.60;;;;;;;10.68;72.43;99853.81;104766;1260;138622;-66
2024/03/25 08:07:14;;;;;;;63.10;53.60;;;;;;;10.88;72.29;99857.00;104918;1261;62319;-67
2024/03/25 08:09:41;;;;;;;37.70;32.00;;;;;;;10.99;71.59;99858.48;104794;1261;138179;-67
2024/03/25 08:12:08;;;;;;;31.00;27.30;;;;;;;11.00;71.33;99861.48;104837;1258;74518;-66
2024/03/25 08:14:34;;;;;;;49.30;39.20;;;;;;;11.11;71.44;99859.84;104926;1258;66729;-66
2024/03/25 08:17:02;;;;;;;33.20;26.90;;;;;;;11.23;71.07;99860.80;104784;1256;138017;-66
2024/03/25 08:19:29;;;;;;;24.60;22.00;;;;;;;11.36;70.83;99861.95;104949;1261;62095;-66
2024/03/25 08:21:55;;;;;;;40.40;31.60;;;;;;;11.47;70.44;99865.02;104909;1260;138129;-67
2024/03/25 08:24:22;;;;;;;27.60;22.20;;;;;;;11.55;70.30;99867.02;104960;1256;76341;-67
2024/03/25 08:26:49;;;;;;;99.50;77.00;;;;;;;11.72;70.28;99866.42;104874;1258;66048;-66
2024/03/25 08:29:15;;;;;;;31.60;27.30;;;;;;;11.87;69.91;99868.10;104830;1256;138115;-66
2024/03/25 08:31:42;;;;;;;24.10;21.50;;;;;;;11.99;69.51;99868.71;104892;1256;62026;-66
2024/03/25 08:34:08;;;;;;;23.80;19.60;;;;;;;12.06;69.18;99866.81;104731;1260;138316;-67
2024/03/25 08:36:35;;;;;;;24.40;20.40;;;;;;;12.12;68.98;99868.95;104699;1257;230941;-66
2024/03/25 08:39:02;;;;;;;23.50;20.00;;;;;;;12.19;68.76;99870.04;104788;1257;66722;-66
2024/03/25 08:41:28;;;;;;;25.80;22.20;;;;;;;12.14;68.26;99876.70;104815;1260;138679;-66
2024/03/25 08:43:55;;;;;;;25.80;21.40;;;;;;;12.15;68.06;99872.66;104856;1256;62253;-66
2024/03/25 08:46:21;;;;;;;27.50;20.50;;;;;;;12.17;68.00;99876.36;104684;1256;138261;-66
2024/03/25 08:48:48;;;;;;;22.10;19.60;;;;;;;12.30;68.13;99871.14;104855;1256;76686;-66
2024/03/25 08:51:15;;;;;;;28.50;24.60;;;;;;;12.46;68.06;99877.17;104711;1256;66872;-67
2024/03/25 08:53:41;;;;;;;25.20;22.00;;;;;;;12.62;67.70;99869.30;104782;1257;138566;-67
2024/03/25 08:56:08;;;;;;;22.80;18.80;;;;;;;12.73;67.33;99870.73;104858;1257;62042;-66
2024/03/25 08:58:34;;;;;;;19.40;17.20;;;;;;;12.80;66.93;99864.58;104736;1260;138133;-66
2024/03/25 09:01:02;;;;;;;21.20;17.30;;;;;;;12.95;67.00;99861.80;104672;1256;74684;-66
2024/03/25 09:03:29;;;;;;;18.40;15.80;;;;;;;13.12;66.49;99861.63;108916;1256;66312;-67
2024/03/25 09:05:56;;;;;;;17.50;15.70;;;;;;;13.19;66.10;99863.56;108844;1257;138106;-66
2024/03/25 09:08:23;;;;;;;17.30;14.80;;;;;;;13.34;66.19;99861.65;109011;1256;59869;-67
2024/03/25 09:11:07;;;;;;;18.30;14.80;;;;;;;13.47;65.70;99863.75;105088;1256;138556;-67
2024/03/25 09:13:33;;;;;;;18.70;15.30;;;;;;;13.55;65.19;99863.04;104754;1257;76569;-67
2024/03/25 09:16:00;;;;;;;16.40;14.30;;;;;;;13.63;64.75;99867.09;104764;1260;138512;-67
2024/03/25 09:18:28;;;;;;;20.90;15.90;;;;;;;13.69;64.59;99860.55;104701;1259;72607;-67
2024/03/25 09:20:55;;;;;;;18.50;15.50;;;;;;;13.78;64.33;99861.41;104803;1260;62066;-67
2024/03/25 09:23:22;;;;;;;17.60;14.60;;;;;;;13.90;64.21;99861.39;106443;1260;138518;-67
2024/03/25 09:25:54;;;;;;;17.20;14.90;;;;;;;13.98;63.85;99868.23;104992;1261;76409;-67
2024/03/25 09:28:21;;;;;;;17.70;14.50;;;;;;;14.03;63.67;99868.05;104819;1259;138664;-67
2024/03/25 09:30:48;;;;;;;15.10;13.50;;;;;;;14.12;63.36;99868.36;104915;1261;73449;-67
2024/03/25 09:33:15;;;;;;;14.30;12.10;;;;;;;14.21;63.10;99872.92;108997;1256;59848;-68
2024/03/25 09:35:42;;;;;;;14.20;12.10;;;;;;;14.39;63.01;99876.90;108838;1255;139317;-67
2024/03/25 09:38:08;;;;;;;13.50;11.20;;;;;;;14.43;62.42;99878.83;108991;1256;75603;-67
2024/03/25 09:40:35;;;;;;;13.10;11.60;;;;;;;14.49;62.59;99880.21;108856;1256;138336;-68
2024/03/25 09:43:02;;;;;;;13.70;12.20;;;;;;;14.64;62.06;99879.63;108962;1256;73717;-67
2024/03/25 09:45:29;;;;;;;13.70;11.90;;;;;;;14.70;61.47;99878.90;109008;1255;59808;-68
2024/03/25 09:47:56;;;;;;;13.40;12.00;;;;;;;14.75;61.31;99882.22;106447;1257;138114;-67
2024/03/25 09:50:23;;;;;;;16.70;13.00;;;;;;;14.75;61.07;99885.05;104894;1257;75933;-67
2024/03/25 09:52:49;;;;;;;16.20;11.10;;;;;;;14.75;60.82;99885.93;104683;1256;138098;-67
2024/03/25 09:55:16;;;;;;;11.10;9.40;;;;;;;14.75;60.55;99886.29;108977;1256;72691;-68
2024/03/25 09:57:43;;;;;;;11.10;10.00;;;;;;;14.74;60.16;99887.88;108897;1256;139642;-68
2024/03/25 10:00:16;;;;;;;10.70;9.60;;;;;;;14.72;60.13;99888.77;105109;1259;62065;-67
2024/03/25 10:02:43;;;;;;;11.90;9.50;;;;;;;14.83;60.21;99887.48;109001;1256;75513;-67
2024/03/25 10:05:10;;;;;;;10.80;9.60;;;;;;;14.94;59.94;99884.76;108771;1256;138254;-67
2024/03/25 10:07:36;;;;;;;11.30;10.00;;;;;;;15.01;59.53;99887.17;105332;1256;72765;-68
2024/03/25 10:10:05;;;;;;;12.10;10.10;;;;;;;15.00;59.11;99887.54;104696;1261;138286;-66
2024/03/25 10:12:32;;;;;;;11.10;10.00;;;;;;;14.94;58.91;99890.23;109021;1256;60428;-66
2024/03/25 10:14:59;;;;;;;12.60;10.70;;;;;;;14.82;58.79;99896.84;105689;1256;75376;-66
2024/03/25 10:17:26;;;;;;;12.70;10.10;;;;;;;14.82;58.83;99895.79;105569;1260;138374;-67
2024/03/25 10:19:55;;;;;;;13.00;9.30;;;;;;;14.88;58.66;99900.16;104785;1256;73306;-66
2024/03/25 10:22:22;;;;;;;10.50;9.40;;;;;;;14.89;58.44;99899.44;104826;1261;142151;-67
2024/03/25 10:24:49;;;;;;;10.50;9.20;;;;;;;15.01;58.78;99897.77;104811;1260;62382;-66
2024/03/25 10:27:22;;;;;;;11.00;9.50;;;;;;;15.16;58.42;99898.73;104830;1259;74396;-67
2024/03/25 10:29:52;;;;;;;10.10;9.10;;;;;;;15.26;58.46;99895.83;108861;1256;137821;-68
2024/03/25 10:32:19;;;;;;;9.30;8.10;;;;;;;15.39;58.19;99898.73;109028;1255;72490;-65
2024/03/25 10:34:46;;;;;;;9.30;8.30;;;;;;;15.42;57.82;99900.29;108800;1256;138443;-67
2024/03/25 10:37:12;;;;;;;10.30;9.20;;;;;;;15.42;57.49;99899.06;107053;1255;61982;-67
2024/03/25 10:39:43;;;;;;;11.10;9.00;;;;;;;15.38;57.39;99898.20;104556;1256;138072;-67
2024/03/25 10:42:11;;;;;;;8.70;7.80;;;;;;;15.29;57.00;99903.05;106111;1256;64636;-66
2024/03/25 10:44:37;;;;;;;9.20;8.10;;;;;;;15.24;57.15;99906.98;104691;1256;73694;-67
2024/03/25 10:47:07;;;;;;;10.20;7.80;;;;;;;15.28;57.01;99902.73;104672;1260;137641;-67
2024/03/25 10:49:55;;;;;;;9.70;8.40;;;;;;;15.28;56.96;99902.36;104740;1256;60661;-67
2024/03/25 10:52:21;;;;;;;9.20;8.30;;;;;;;15.28;56.74;99905.52;104659;1256;137978;-67
2024/03/25 10:54:48;;;;;;;11.90;8.40;;;;;;;15.22;56.39;99910.70;104908;1260;65548;-67
2024/03/25 10:57:15;;;;;;;9.40;8.40;;;;;;;15.02;56.01;99912.44;104705;1257;73705;-68
2024/03/25 10:59:43;;;;;;;10.10;7.00;;;;;;;14.65;55.91;99915.63;104576;1262;137948;-66
2024/03/25 11:02:10;;;;;;;7.90;7.10;;;;;;;14.38;55.86;99919.27;104831;1262;62498;-66
2024/03/25 11:04:37;;;;;;;7.20;6.50;;;;;;;14.15;56.08;99919.89;106447;1263;138465;-67
2024/03/25 11:07:12;;;;;;;8.60;7.60;;;;;;;14.01;56.20;99924.14;104720;1256;66858;-67
2024/03/25 11:09:39;;;;;;;10.00;7.80;;;;;;;13.82;56.14;99920.84;105864;1256;138277;-67
2024/03/25 11:12:06;;;;;;;12.50;11.00;;;;;;;13.63;56.06;99924.02;104811;1262;62165;-67
2024/03/25 11:14:34;;;;;;;18.20;14.40;;;;;;;13.41;56.19;99927.91;107860;1256;60262;-67
2024/03/25 11:17:01;;;;;;;11.70;10.00;;;;;;;13.29;56.56;99931.59;104770;1256;138822;-66